Time;durP1;ratioP1;P1;durP2;ratioP2;P2;SDS_P1;SDS_P2;PMS_P1;PMS_P2;Temp;Humidity;BMP_temperature;BMP_pressure;BME280_temperature;BME280_humidity;BME280_pressure;Samples;Min_cycle;Max_cycle;Signal;HPM_P1;HPM_P2
2023/03/22 00:02:15;;;;;;;4.03;2.83;;;13.70;77.70;;;;;;4904375;29;20061;-86
2023/03/22 00:04:42;;;;;;;4.65;2.90;;;13.70;77.80;;;;;;4920034;29;20024;-85
2023/03/22 00:07:07;;;;;;;4.30;2.90;;;13.70;77.80;;;;;;4935678;29;20478;-85
2023/03/22 00:09:33;;;;;;;4.50;2.80;;;13.70;77.80;;;;;;4920619;29;20036;-85
2023/03/22 00:11:59;;;;;;;5.60;3.17;;;13.70;77.80;;;;;;4903891;29;20040;-85
2023/03/22 00:14:25;;;;;;;3.67;2.78;;;13.70;77.80;;;;;;4888361;29;20039;-85
2023/03/22 00:16:51;;;;;;;3.65;2.63;;;13.60;77.80;;;;;;4903673;29;20064;-85
2023/03/22 00:19:16;;;;;;;3.38;2.45;;;13.60;77.80;;;;;;4919979;29;20033;-86
2023/03/22 00:21:43;;;;;;;3.72;2.67;;;13.60;77.80;;;;;;4920962;29;20543;-86
2023/03/22 00:24:09;;;;;;;3.40;2.30;;;13.60;77.80;;;;;;4903967;29;20084;-85
2023/03/22 00:26:34;;;;;;;3.88;2.63;;;13.60;77.80;;;;;;4919480;29;20055;-85
2023/03/22 00:29:00;;;;;;;3.78;2.78;;;13.60;77.80;;;;;;4920503;29;20029;-85
2023/03/22 00:31:26;;;;;;;3.42;2.58;;;13.60;77.80;;;;;;4903541;29;20083;-85
2023/03/22 00:33:52;;;;;;;3.03;2.50;;;13.60;77.90;;;;;;4919293;29;20394;-85
2023/03/22 00:36:18;;;;;;;3.67;2.55;;;13.50;77.80;;;;;;4919650;29;20122;-84
2023/03/22 00:38:44;;;;;;;2.88;2.13;;;13.50;77.80;;;;;;4920752;29;20103;-85
2023/03/22 00:41:18;;;;;;;4.13;2.42;;;13.50;77.80;;;;;;4919886;29;20047;-85
2023/03/22 00:43:45;;;;;;;3.45;2.40;;;13.50;78.50;;;;;;4904663;29;20025;-85
2023/03/22 00:46:12;;;;;;;2.65;2.05;;;13.50;77.90;;;;;;4904836;29;20032;-85
2023/03/22 00:48:39;;;;;;;3.40;2.50;;;13.40;77.90;;;;;;4889457;29;20040;-86
2023/03/22 00:51:05;;;;;;;3.30;2.40;;;13.50;77.90;;;;;;4920301;29;20032;-85
2023/03/22 00:53:32;;;;;;;2.90;2.30;;;13.40;77.80;;;;;;4920002;29;20086;-85
2023/03/22 00:55:58;;;;;;;3.42;2.55;;;13.40;77.90;;;;;;4903938;29;20580;-86
2023/03/22 00:58:25;;;;;;;2.83;2.13;;;13.40;77.80;;;;;;4919921;29;20470;-85
2023/03/22 01:00:51;;;;;;;3.25;2.10;;;13.40;77.90;;;;;;4903491;29;20091;-85
2023/03/22 01:03:17;;;;;;;3.53;2.33;;;13.40;77.90;;;;;;4919092;29;20393;-86
2023/03/22 01:05:48;;;;;;;3.25;2.33;;;13.40;77.90;;;;;;4918691;29;20035;-85
2023/03/22 01:08:15;;;;;;;3.65;2.30;;;13.40;77.90;;;;;;4934832;29;20032;-86
2023/03/22 01:10:42;;;;;;;4.05;2.50;;;13.30;77.90;;;;;;4903404;29;20068;-86
2023/03/22 01:13:09;;;;;;;3.15;2.15;;;13.30;77.90;;;;;;4902872;29;20036;-85
2023/03/22 01:15:35;;;;;;;2.65;2.03;;;13.30;77.90;;;;;;4935309;29;20032;-86
2023/03/22 01:18:02;;;;;;;3.05;2.05;;;13.30;77.90;;;;;;4935469;29;20127;-85
2023/03/22 01:20:29;;;;;;;3.65;2.30;;;13.30;78.00;;;;;;4919799;29;20058;-84
2023/03/22 01:22:54;;;;;;;2.72;2.08;;;13.30;78.00;;;;;;4918684;29;20032;-85
2023/03/22 01:25:20;;;;;;;2.30;2.10;;;13.20;77.90;;;;;;4902774;29;20028;-86
2023/03/22 01:27:46;;;;;;;3.85;2.20;;;13.20;77.90;;;;;;4918371;29;20040;-86
2023/03/22 01:30:13;;;;;;;2.22;1.88;;;13.20;77.90;;;;;;4902558;29;20036;-85
2023/03/22 01:32:38;;;;;;;2.38;1.80;;;13.20;77.90;;;;;;4934188;29;20103;-86
2023/03/22 01:35:05;;;;;;;2.92;2.00;;;13.20;78.00;;;;;;4902272;29;20036;-85
2023/03/22 01:37:32;;;;;;;2.40;1.92;;;13.20;78.00;;;;;;4903138;29;20036;-85
2023/03/22 01:39:59;;;;;;;2.72;2.08;;;13.20;78.00;;;;;;4918224;29;20141;-86
2023/03/22 01:42:25;;;;;;;4.43;2.30;;;13.10;77.90;;;;;;4887238;29;20115;-86
2023/03/22 01:45:13;;;;;;;2.88;2.10;;;13.10;78.00;;;;;;4901847;29;20032;-86
2023/03/22 01:47:50;;;;;;;2.05;1.85;;;13.10;78.10;;;;;;4917729;29;20028;-87
2023/03/22 01:50:17;;;;;;;2.53;1.90;;;13.10;78.00;;;;;;4917331;29;20043;-84
2023/03/22 01:52:46;;;;;;;3.72;2.20;;;13.10;78.00;;;;;;4934308;29;20067;-84
2023/03/22 01:55:24;;;;;;;3.25;2.30;;;13.10;78.00;;;;;;4902570;29;20060;-83
2023/03/22 01:58:09;;;;;;;1.83;1.67;;;13.10;78.00;;;;;;4915122;29;20040;-85
2023/03/22 02:00:49;;;;;;;2.30;1.80;;;13.00;78.00;;;;;;4901500;29;20064;-82
2023/03/22 02:03:38;;;;;;;2.88;2.00;;;13.00;78.00;;;;;;4901729;29;20462;-84
2023/03/22 02:06:04;;;;;;;2.78;2.08;;;13.00;78.10;;;;;;4932713;29;20036;-85
2023/03/22 02:08:31;;;;;;;2.08;1.70;;;13.00;78.10;;;;;;4916889;29;20033;-85
2023/03/22 02:11:03;;;;;;;3.28;2.20;;;13.00;78.10;;;;;;4902093;29;20100;-85
2023/03/22 02:13:46;;;;;;;3.17;2.10;;;13.00;78.10;;;;;;4885619;29;20039;-85
2023/03/22 02:17:08;;;;;;;2.58;1.90;;;13.00;78.10;;;;;;4887186;29;20044;-85
2023/03/22 02:19:54;;;;;;;2.75;2.00;;;13.00;78.10;;;;;;4901264;29;20032;-84
2023/03/22 02:22:37;;;;;;;2.78;1.90;;;12.90;78.10;;;;;;4932772;29;20079;-85
2023/03/22 02:25:09;;;;;;;3.30;1.98;;;12.90;78.10;;;;;;4901262;29;20039;-84
2023/03/22 02:28:02;;;;;;;2.67;2.08;;;12.90;78.10;;;;;;4916516;29;20083;-85
2023/03/22 02:31:06;;;;;;;2.47;1.90;;;12.90;78.20;;;;;;4932636;29;20063;-84
2023/03/22 02:34:02;;;;;;;2.72;2.15;;;12.90;78.20;;;;;;4894217;29;20044;-84
2023/03/22 02:36:31;;;;;;;2.40;1.98;;;12.90;78.10;;;;;;4917460;29;20048;-84
2023/03/22 02:39:15;;;;;;;3.47;2.10;;;12.90;78.10;;;;;;4916785;29;20024;-86
2023/03/22 02:41:58;;;;;;;3.58;2.35;;;12.90;78.20;;;;;;4916814;29;20048;-85
2023/03/22 02:44:44;;;;;;;2.35;1.88;;;12.90;78.20;;;;;;4917958;29;20036;-83
2023/03/22 02:47:22;;;;;;;3.75;2.38;;;12.80;78.10;;;;;;4901450;29;20031;-83
2023/03/22 02:50:14;;;;;;;3.83;2.50;;;12.90;78.20;;;;;;4932789;29;20060;-86
2023/03/22 02:53:12;;;;;;;3.05;2.33;;;12.80;78.20;;;;;;4900606;29;20433;-86
2023/03/22 02:55:40;;;;;;;2.92;2.47;;;12.80;78.20;;;;;;4896198;29;20047;-86
2023/03/22 02:58:16;;;;;;;3.38;2.70;;;12.80;78.10;;;;;;4885420;29;20047;-86
2023/03/22 03:00:48;;;;;;;3.85;2.65;;;12.80;78.30;;;;;;4861902;29;1161248;-86
2023/03/22 03:03:17;;;;;;;3.30;2.60;;;12.80;78.20;;;;;;4932966;29;20044;-86
2023/03/22 03:05:46;;;;;;;4.20;2.80;;;12.80;78.30;;;;;;4916705;29;20032;-86
2023/03/22 03:08:14;;;;;;;4.40;2.67;;;12.80;78.30;;;;;;4916862;29;20032;-85
2023/03/22 03:10:41;;;;;;;4.78;3.00;;;12.80;78.30;;;;;;4932616;29;20032;-85
2023/03/22 03:13:12;;;;;;;4.03;3.00;;;12.80;78.30;;;;;;4901137;29;20335;-86
2023/03/22 03:15:44;;;;;;;3.97;2.88;;;12.80;78.30;;;;;;4932519;29;20047;-86
2023/03/22 03:18:17;;;;;;;4.13;3.13;;;12.80;78.30;;;;;;4932991;29;20071;-86
2023/03/22 03:21:10;;;;;;;4.47;3.15;;;12.80;78.30;;;;;;4902093;29;20028;-86
2023/03/22 03:23:35;;;;;;;4.50;3.28;;;12.80;78.40;;;;;;4885223;29;20441;-86
2023/03/22 03:26:22;;;;;;;4.85;3.33;;;12.80;78.30;;;;;;4916770;29;20050;-86
2023/03/22 03:28:59;;;;;;;4.60;3.28;;;12.80;78.40;;;;;;4933516;29;20481;-85
2023/03/22 03:31:56;;;;;;;4.45;3.38;;;12.80;78.30;;;;;;4916802;29;20032;-86
2023/03/22 03:34:48;;;;;;;4.55;3.40;;;12.80;78.40;;;;;;4906936;29;20505;-87
2023/03/22 03:37:25;;;;;;;3.88;3.00;;;12.70;78.30;;;;;;4910857;29;20028;-86
2023/03/22 03:40:04;;;;;;;5.10;3.50;;;12.80;78.40;;;;;;4927516;29;20028;-86
2023/03/22 03:42:31;;;;;;;4.13;3.10;;;12.70;78.40;;;;;;4917803;29;20036;-86
2023/03/22 03:44:58;;;;;;;4.40;3.13;;;12.70;78.40;;;;;;4901116;29;20142;-84
2023/03/22 03:47:27;;;;;;;4.38;3.42;;;12.70;78.40;;;;;;4900128;29;20040;-83
2023/03/22 03:49:53;;;;;;;4.80;3.45;;;12.80;78.50;;;;;;4917438;29;20040;-86
2023/03/22 03:52:23;;;;;;;5.28;3.58;;;12.70;78.40;;;;;;4919412;29;20437;-86
2023/03/22 03:54:49;;;;;;;5.50;3.55;;;12.80;78.50;;;;;;4903119;29;20033;-84
2023/03/22 03:57:19;;;;;;;4.72;3.50;;;12.70;78.40;;;;;;4902448;29;20496;-84
2023/03/22 03:59:45;;;;;;;4.55;3.35;;;12.70;78.40;;;;;;4933230;29;20489;-84
2023/03/22 04:02:22;;;;;;;5.88;4.03;;;12.80;78.50;;;;;;4916583;29;20055;-84
2023/03/22 04:04:50;;;;;;;4.53;3.22;;;12.70;78.40;;;;;;4916828;29;20040;-87
2023/03/22 04:07:18;;;;;;;5.43;3.88;;;12.80;78.50;;;;;;4917766;29;20043;-86
2023/03/22 04:09:44;;;;;;;5.25;3.90;;;12.70;78.40;;;;;;4904076;29;20032;-85
2023/03/22 04:12:35;;;;;;;4.82;3.33;;;12.80;78.50;;;;;;4903447;29;20040;-86
2023/03/22 04:15:14;;;;;;;3.92;2.88;;;12.70;78.40;;;;;;4917634;29;20127;-85
2023/03/22 04:17:42;;;;;;;4.20;3.30;;;12.70;78.40;;;;;;4904456;29;20510;-86
2023/03/22 04:20:11;;;;;;;5.07;3.72;;;12.70;78.40;;;;;;4903521;29;20508;-86
2023/03/22 04:22:37;;;;;;;4.72;3.40;;;12.80;78.50;;;;;;4935269;29;20095;-87
2023/03/22 04:25:10;;;;;;;4.90;3.50;;;12.70;78.50;;;;;;4921001;29;20028;-86
2023/03/22 04:27:39;;;;;;;5.22;3.50;;;12.70;78.50;;;;;;4891863;29;20044;-86
2023/03/22 04:30:18;;;;;;;4.65;3.40;;;12.80;78.50;;;;;;4923519;29;20181;-87
2023/03/22 04:33:00;;;;;;;4.57;3.30;;;12.70;78.50;;;;;;4910401;29;20064;-86
2023/03/22 04:35:45;;;;;;;4.68;3.53;;;12.70;78.40;;;;;;4907004;29;20036;-87
2023/03/22 04:38:12;;;;;;;5.00;3.50;;;12.70;78.40;;;;;;4920071;29;20397;-86
2023/03/22 04:40:45;;;;;;;4.20;2.90;;;12.70;78.50;;;;;;4903301;29;20035;-86
2023/03/22 04:43:17;;;;;;;4.25;3.17;;;12.70;78.50;;;;;;4903542;29;20058;-85
2023/03/22 04:46:01;;;;;;;5.30;3.53;;;12.70;78.50;;;;;;4903815;29;20040;-86
2023/03/22 04:48:33;;;;;;;4.43;3.42;;;12.70;78.50;;;;;;4903844;29;20059;-86
2023/03/22 04:51:02;;;;;;;4.95;3.00;;;12.70;78.50;;;;;;4917098;29;20051;-85
2023/03/22 04:53:32;;;;;;;4.55;3.35;;;12.70;78.60;;;;;;4918824;29;20126;-85
2023/03/22 04:56:04;;;;;;;3.88;3.00;;;12.70;78.60;;;;;;4903328;29;20039;-86
2023/03/22 04:58:31;;;;;;;4.40;3.33;;;12.70;78.60;;;;;;4904135;29;20099;-85
2023/03/22 05:00:57;;;;;;;4.82;3.47;;;12.70;78.60;;;;;;4935433;29;20557;-85
2023/03/22 05:03:23;;;;;;;4.18;3.13;;;12.70;78.60;;;;;;4903137;29;20028;-85
2023/03/22 05:05:56;;;;;;;4.47;3.25;;;12.70;79.20;;;;;;4903168;29;20034;-85
2023/03/22 05:08:27;;;;;;;4.30;2.90;;;12.70;78.60;;;;;;4934840;29;20123;-86
2023/03/22 05:10:56;;;;;;;4.30;3.30;;;12.70;78.50;;;;;;4919632;29;20056;-86
2023/03/22 05:13:26;;;;;;;3.65;3.10;;;12.60;78.50;;;;;;4903183;29;20024;-86
2023/03/22 05:15:53;;;;;;;4.70;3.00;;;12.60;78.50;;;;;;4918756;29;20036;-85
2023/03/22 05:18:25;;;;;;;3.78;2.72;;;12.60;78.50;;;;;;4887454;29;20032;-83
2023/03/22 05:20:55;;;;;;;5.10;3.58;;;12.60;78.50;;;;;;4918856;29;20028;-82
2023/03/22 05:23:22;;;;;;;4.03;2.85;;;12.60;78.60;;;;;;4887516;29;20036;-87
2023/03/22 05:25:53;;;;;;;4.03;2.88;;;12.60;78.50;;;;;;4917788;29;20032;-85
2023/03/22 05:28:21;;;;;;;4.00;3.05;;;12.60;78.60;;;;;;4918444;29;20043;-87
2023/03/22 05:31:04;;;;;;;3.97;2.80;;;12.60;78.50;;;;;;4920573;29;20024;-86
2023/03/22 05:33:51;;;;;;;4.85;2.95;;;12.60;78.50;;;;;;4931451;29;20480;-84
2023/03/22 05:36:20;;;;;;;5.43;3.25;;;12.60;78.50;;;;;;4918485;29;20040;-86
2023/03/22 05:39:04;;;;;;;3.83;2.60;;;12.60;78.50;;;;;;4905752;29;20090;-86
2023/03/22 05:41:32;;;;;;;3.60;2.63;;;12.60;78.60;;;;;;4918635;29;20454;-86
2023/03/22 05:43:59;;;;;;;3.20;2.60;;;12.50;78.50;;;;;;4918180;29;20028;-85
2023/03/22 05:46:25;;;;;;;3.20;2.60;;;12.60;78.60;;;;;;4933590;29;20044;-86
2023/03/22 05:49:17;;;;;;;4.90;2.75;;;12.60;78.60;;;;;;4896240;29;20044;-87
2023/03/22 05:51:43;;;;;;;3.95;2.72;;;12.60;78.60;;;;;;4902828;29;20150;-83
2023/03/22 05:54:11;;;;;;;4.22;2.60;;;12.50;78.60;;;;;;4902383;29;20032;-89
2023/03/22 05:56:44;;;;;;;4.18;2.70;;;12.50;78.60;;;;;;4902385;29;20036;-89
2023/03/22 05:59:10;;;;;;;4.10;2.92;;;12.50;78.60;;;;;;4917765;29;20030;-88
2023/03/22 06:01:36;;;;;;;3.50;2.30;;;12.50;78.60;;;;;;4901851;29;20139;-87
2023/03/22 06:04:19;;;;;;;3.30;2.38;;;12.50;78.60;;;;;;4901911;29;20477;-86
2023/03/22 06:06:52;;;;;;;2.88;2.40;;;12.50;78.60;;;;;;4917156;29;20040;-85
2023/03/22 06:09:34;;;;;;;3.75;2.78;;;12.50;78.60;;;;;;4933246;29;20071;-86
2023/03/22 06:12:00;;;;;;;3.90;2.88;;;12.50;78.60;;;;;;4917454;29;20039;-81
2023/03/22 06:14:26;;;;;;;3.22;2.50;;;12.50;78.60;;;;;;4901538;29;20032;-85
2023/03/22 06:17:11;;;;;;;3.10;2.43;;;12.50;78.70;;;;;;4902171;29;20032;-84
2023/03/22 06:19:37;;;;;;;3.42;2.40;;;12.50;78.70;;;;;;4886318;29;20280;-84
2023/03/22 06:22:05;;;;;;;2.63;2.22;;;12.50;78.70;;;;;;4901307;29;20020;-85
2023/03/22 06:24:33;;;;;;;3.25;2.50;;;12.50;78.60;;;;;;4901140;29;20362;-85
2023/03/22 06:26:59;;;;;;;3.28;2.45;;;12.50;78.70;;;;;;4901182;29;20452;-83
2023/03/22 06:29:26;;;;;;;3.40;2.45;;;12.50;78.70;;;;;;4901193;29;20074;-83
2023/03/22 06:31:54;;;;;;;3.47;2.58;;;12.40;78.70;;;;;;4917649;29;20302;-84
2023/03/22 06:34:20;;;;;;;2.65;2.05;;;12.40;79.30;;;;;;4916998;29;20051;-85
2023/03/22 06:36:47;;;;;;;2.60;2.03;;;12.50;79.40;;;;;;4916618;29;20039;-84
2023/03/22 06:39:24;;;;;;;2.47;2.03;;;12.40;78.70;;;;;;4901673;29;20469;-85
2023/03/22 06:41:50;;;;;;;2.67;2.05;;;12.40;78.70;;;;;;4917965;29;20028;-85
2023/03/22 06:44:17;;;;;;;2.90;2.25;;;12.40;78.70;;;;;;4886121;29;20047;-85
2023/03/22 06:46:49;;;;;;;3.90;2.13;;;12.40;78.70;;;;;;4917469;29;20044;-85
2023/03/22 06:49:33;;;;;;;3.22;2.22;;;12.40;78.70;;;;;;4904526;29;20135;-86
2023/03/22 06:51:59;;;;;;;3.78;2.28;;;12.40;78.70;;;;;;4900866;29;20060;-87
2023/03/22 06:54:26;;;;;;;3.45;2.22;;;12.40;78.70;;;;;;4901363;29;20025;-85
2023/03/22 06:56:52;;;;;;;2.45;1.92;;;12.40;78.70;;;;;;4917016;29;20047;-85
2023/03/22 06:59:18;;;;;;;3.17;2.20;;;12.40;78.70;;;;;;4901073;29;20032;-85
2023/03/22 07:01:44;;;;;;;3.20;2.38;;;12.40;78.70;;;;;;4932520;29;20056;-85
2023/03/22 07:04:10;;;;;;;2.95;2.15;;;12.40;78.80;;;;;;4933144;29;20043;-86
2023/03/22 07:06:37;;;;;;;3.15;2.20;;;12.40;78.80;;;;;;4917807;29;20043;-86
2023/03/22 07:09:04;;;;;;;3.50;2.45;;;12.40;78.80;;;;;;4918120;29;20413;-86
2023/03/22 07:11:33;;;;;;;3.20;2.10;;;12.40;78.80;;;;;;4902208;29;20068;-86
2023/03/22 07:14:01;;;;;;;2.60;1.88;;;12.40;78.80;;;;;;4902465;29;20043;-85
2023/03/22 07:16:43;;;;;;;3.15;2.10;;;12.40;78.80;;;;;;4924058;29;20036;-85
2023/03/22 07:19:09;;;;;;;3.10;1.92;;;12.40;78.80;;;;;;4911000;29;20028;-85
2023/03/22 07:21:36;;;;;;;2.58;2.00;;;12.40;78.80;;;;;;4940557;29;20035;-85
2023/03/22 07:24:07;;;;;;;2.95;2.22;;;12.40;78.90;;;;;;4889642;29;20036;-87
2023/03/22 07:26:37;;;;;;;4.35;2.25;;;12.40;78.90;;;;;;4902127;29;20032;-85
2023/03/22 07:29:03;;;;;;;3.45;2.10;;;12.40;78.90;;;;;;4916946;29;20060;-85
2023/03/22 07:31:35;;;;;;;3.38;2.17;;;12.40;78.90;;;;;;4901079;29;20091;-85
2023/03/22 07:34:06;;;;;;;2.60;1.95;;;12.40;78.90;;;;;;4915581;29;20135;-85
2023/03/22 07:36:59;;;;;;;2.63;2.00;;;12.40;78.90;;;;;;4914009;29;20040;-86
2023/03/22 07:39:27;;;;;;;3.72;2.20;;;12.40;79.50;;;;;;4916550;29;20063;-86
2023/03/22 07:41:54;;;;;;;4.15;2.40;;;12.40;78.90;;;;;;4917891;29;20024;-86
2023/03/22 07:44:23;;;;;;;2.33;1.98;;;12.40;78.90;;;;;;4921915;29;20071;-85
2023/03/22 07:47:09;;;;;;;2.42;1.92;;;12.40;78.90;;;;;;4892949;29;20060;-86
2023/03/22 07:49:53;;;;;;;2.53;1.90;;;12.50;78.90;;;;;;4935843;29;20501;-85
2023/03/22 07:52:24;;;;;;;2.72;1.92;;;12.50;78.90;;;;;;4904610;29;20052;-85
2023/03/22 07:54:50;;;;;;;2.30;1.90;;;12.50;78.90;;;;;;4904099;29;20032;-85
2023/03/22 07:57:16;;;;;;;2.28;1.67;;;12.50;79.00;;;;;;4904206;29;20393;-85
2023/03/22 07:59:47;;;;;;;2.83;1.95;;;12.50;79.00;;;;;;4919749;29;20064;-85
2023/03/22 08:02:14;;;;;;;2.17;1.80;;;12.50;79.00;;;;;;4904447;29;20036;-85
2023/03/22 08:04:45;;;;;;;3.38;2.10;;;12.50;79.00;;;;;;4919498;29;20028;-86
2023/03/22 08:07:37;;;;;;;3.30;2.30;;;12.60;79.00;;;;;;4916695;29;20048;-85
2023/03/22 08:10:03;;;;;;;2.10;1.80;;;12.60;79.00;;;;;;4904164;29;20037;-85
2023/03/22 08:12:31;;;;;;;2.90;1.88;;;12.60;79.00;;;;;;4904408;29;20024;-86
2023/03/22 08:15:15;;;;;;;3.85;2.30;;;12.60;79.00;;;;;;4917692;29;20453;-84
2023/03/22 08:17:42;;;;;;;3.33;2.10;;;12.60;79.00;;;;;;4904025;29;20068;-84
2023/03/22 08:20:14;;;;;;;3.30;2.00;;;12.60;79.00;;;;;;4903897;29;20064;-84
2023/03/22 08:22:47;;;;;;;3.90;2.20;;;12.70;79.10;;;;;;4906460;29;20104;-84
2023/03/22 08:25:25;;;;;;;2.72;2.05;;;12.70;79.10;;;;;;4920799;29;20100;-88
2023/03/22 08:27:54;;;;;;;3.03;1.90;;;12.70;79.10;;;;;;4908197;29;20040;-93
2023/03/22 08:30:21;;;;;;;3.40;2.20;;;12.70;79.00;;;;;;4930813;29;20028;-91
2023/03/22 08:32:47;;;;;;;5.45;2.28;;;12.70;79.10;;;;;;4920411;29;20175;-90
2023/03/22 08:35:13;;;;;;;2.85;1.85;;;12.70;79.00;;;;;;4931182;29;20036;-85
2023/03/22 08:37:40;;;;;;;2.90;1.95;;;12.80;79.10;;;;;;4922119;29;20036;-89
2023/03/22 08:40:08;;;;;;;2.92;2.05;;;12.80;79.00;;;;;;4904424;29;20032;-88
2023/03/22 08:42:42;;;;;;;3.15;2.17;;;12.80;79.00;;;;;;4904503;29;20032;-87
2023/03/22 08:45:10;;;;;;;3.80;2.22;;;12.80;79.00;;;;;;4920091;29;20132;-85
2023/03/22 08:47:43;;;;;;;3.22;2.00;;;12.90;79.00;;;;;;4929109;29;20083;-86
2023/03/22 08:50:11;;;;;;;3.58;2.10;;;12.90;79.00;;;;;;4927977;29;20044;-86
2023/03/22 08:52:49;;;;;;;4.35;2.25;;;12.90;79.60;;;;;;4889738;29;20020;-88
2023/03/22 08:55:25;;;;;;;3.13;1.90;;;12.90;78.90;;;;;;4904462;29;20131;-86
2023/03/22 08:58:11;;;;;;;2.95;2.30;;;13.00;79.00;;;;;;4920400;29;20051;-87
2023/03/22 09:00:47;;;;;;;4.60;2.10;;;13.00;79.00;;;;;;4920674;29;20040;-85
2023/03/22 09:03:27;;;;;;;3.00;2.10;;;13.00;78.90;;;;;;4903935;29;20051;-86
2023/03/22 09:05:53;;;;;;;2.38;1.95;;;13.00;78.90;;;;;;4919029;29;20032;-86
2023/03/22 09:08:19;;;;;;;3.25;2.25;;;13.10;79.00;;;;;;4904092;29;20051;-85
2023/03/22 09:10:50;;;;;;;2.47;1.92;;;13.10;78.90;;;;;;4918824;29;20032;-87
2023/03/22 09:13:19;;;;;;;3.42;2.53;;;13.10;78.90;;;;;;4905684;29;20127;-94
2023/03/22 09:15:51;;;;;;;3.58;2.35;;;13.10;78.90;;;;;;4906270;29;20032;-89
2023/03/22 09:18:23;;;;;;;3.53;2.05;;;13.20;78.90;;;;;;4903201;29;20036;-85
2023/03/22 09:20:50;;;;;;;2.10;1.88;;;13.20;78.80;;;;;;4903180;29;20392;-88
2023/03/22 09:23:19;;;;;;;3.42;2.47;;;13.30;78.80;;;;;;4902938;29;20035;-88
2023/03/22 09:25:46;;;;;;;3.72;2.20;;;13.30;78.80;;;;;;4934472;29;20031;-87
2023/03/22 09:28:15;;;;;;;3.20;2.10;;;13.30;78.70;;;;;;4935124;29;20024;-87
2023/03/22 09:30:43;;;;;;;3.35;2.20;;;13.30;78.70;;;;;;4918386;29;20040;-88
2023/03/22 09:33:11;;;;;;;3.05;2.13;;;13.40;78.70;;;;;;4934318;29;20040;-87
2023/03/22 09:35:41;;;;;;;2.55;2.20;;;13.40;78.60;;;;;;4902854;29;20043;-87
2023/03/22 09:38:07;;;;;;;3.55;2.20;;;13.50;78.70;;;;;;4902483;29;20024;-89
2023/03/22 09:40:36;;;;;;;3.17;2.25;;;13.50;78.50;;;;;;4919453;29;20518;-86
2023/03/22 09:43:06;;;;;;;3.22;1.88;;;13.50;78.50;;;;;;4919029;29;20024;-87
2023/03/22 09:45:38;;;;;;;3.78;2.20;;;13.60;78.50;;;;;;4934035;29;20119;-87
2023/03/22 09:48:32;;;;;;;2.58;1.98;;;13.60;78.50;;;;;;4902619;29;20032;-90
2023/03/22 09:51:00;;;;;;;2.35;1.88;;;13.60;78.40;;;;;;4918402;29;20032;-90
2023/03/22 09:53:28;;;;;;;2.63;1.90;;;13.70;78.40;;;;;;4922094;29;20056;-89
2023/03/22 09:56:16;;;;;;;2.50;2.03;;;13.70;78.30;;;;;;4919160;29;20032;-90
2023/03/22 09:58:50;;;;;;;2.80;1.92;;;13.70;78.40;;;;;;4918894;29;20028;-89
2023/03/22 10:01:38;;;;;;;3.38;2.00;;;13.80;79.00;;;;;;4919416;29;20048;-91
2023/03/22 10:04:40;;;;;;;2.85;2.00;;;13.80;78.40;;;;;;4918192;29;20050;-89
2023/03/22 10:07:26;;;;;;;3.35;1.80;;;13.80;78.30;;;;;;4918153;29;20036;-90
2023/03/22 10:10:16;;;;;;;2.63;1.73;;;13.90;78.40;;;;;;4918564;29;20040;-90
2023/03/22 10:12:52;;;;;;;2.63;1.90;;;13.90;78.30;;;;;;4918481;29;20392;-90
2023/03/22 10:15:51;;;;;;;2.25;1.58;;;13.90;78.30;;;;;;4902927;29;20419;-90
2023/03/22 10:18:50;;;;;;;2.47;1.70;;;13.90;78.40;;;;;;4898479;29;20489;-90
2023/03/22 10:21:18;;;;;;;1.95;1.48;;;13.90;78.40;;;;;;4896748;29;20040;-90
2023/03/22 10:23:45;;;;;;;2.55;2.00;;;14.00;78.40;;;;;;4895370;29;20055;-90
2023/03/22 10:26:29;;;;;;;3.08;1.70;;;14.00;78.40;;;;;;4928910;29;20107;-89
2023/03/22 10:29:02;;;;;;;2.90;1.80;;;14.00;78.50;;;;;;4927539;29;20032;-90
2023/03/22 10:31:29;;;;;;;1.83;1.60;;;14.00;78.50;;;;;;4922180;29;20067;-89
2023/03/22 10:34:05;;;;;;;2.20;1.70;;;14.10;78.50;;;;;;4938185;29;20032;-90
2023/03/22 10:36:36;;;;;;;2.53;1.60;;;14.10;78.50;;;;;;4920417;29;20091;-91
2023/03/22 10:39:28;;;;;;;2.65;1.90;;;14.10;78.50;;;;;;4902593;29;20032;-93
2023/03/22 10:41:56;;;;;;;2.65;1.70;;;14.10;78.70;;;;;;4906502;29;20040;-89
2023/03/22 10:44:26;;;;;;;2.65;1.60;;;14.10;78.60;;;;;;4901563;29;20469;-88
2023/03/22 10:46:53;;;;;;;2.78;1.75;;;14.20;78.70;;;;;;4901752;29;20032;-89
2023/03/22 10:49:32;;;;;;;2.90;1.70;;;14.20;78.70;;;;;;4901783;29;20072;-89
2023/03/22 10:52:21;;;;;;;2.00;1.67;;;14.20;78.70;;;;;;4919520;29;20461;-90
2023/03/22 10:54:47;;;;;;;3.42;1.60;;;14.20;79.10;;;;;;4901889;29;20032;-89
2023/03/22 10:57:13;;;;;;;1.83;1.52;;;14.20;78.60;;;;;;4918253;29;20055;-90
2023/03/22 10:59:48;;;;;;;2.67;1.70;;;14.20;78.70;;;;;;4917366;29;20040;-89
2023/03/22 11:02:25;;;;;;;3.05;1.73;;;14.20;78.70;;;;;;4886619;29;20094;-89
2023/03/22 11:04:54;;;;;;;2.08;1.50;;;14.20;78.80;;;;;;4902157;29;20029;-89
2023/03/22 11:07:52;;;;;;;1.70;1.60;;;14.30;78.80;;;;;;4886936;29;20028;-89
2023/03/22 11:10:21;;;;;;;2.03;1.55;;;14.30;78.80;;;;;;4933029;29;20371;-89
2023/03/22 11:12:54;;;;;;;2.35;1.52;;;14.30;78.80;;;;;;4901359;29;20028;-89
2023/03/22 11:15:29;;;;;;;3.38;1.80;;;14.30;78.80;;;;;;4901464;29;20458;-88
2023/03/22 11:18:09;;;;;;;2.00;1.65;;;14.30;78.80;;;;;;4904304;29;20032;-90
2023/03/22 11:20:40;;;;;;;2.45;1.60;;;14.30;78.90;;;;;;4905342;29;20168;-89
2023/03/22 11:23:10;;;;;;;2.80;1.40;;;14.30;78.80;;;;;;4937390;29;20043;-89
2023/03/22 11:25:46;;;;;;;3.08;1.60;;;14.30;78.80;;;;;;4889166;29;20032;-90
2023/03/22 11:28:31;;;;;;;1.88;1.58;;;14.30;78.90;;;;;;4905324;29;20492;-88
2023/03/22 11:31:06;;;;;;;2.55;1.70;;;14.40;78.90;;;;;;4905230;29;20035;-89
2023/03/22 11:33:33;;;;;;;1.77;1.38;;;14.40;78.90;;;;;;4905240;29;20024;-90
2023/03/22 11:36:02;;;;;;;1.60;1.50;;;14.40;78.80;;;;;;4921456;29;20032;-91
2023/03/22 11:38:35;;;;;;;2.90;1.70;;;14.30;78.80;;;;;;4904904;29;20561;-90
2023/03/22 11:41:05;;;;;;;2.92;1.42;;;14.40;78.90;;;;;;4904746;29;20035;-89
2023/03/22 11:43:38;;;;;;;3.25;1.70;;;14.40;78.90;;;;;;4936975;29;20036;-90
2023/03/22 11:46:07;;;;;;;2.60;1.60;;;14.40;78.90;;;;;;4921393;29;20039;-90
2023/03/22 11:48:34;;;;;;;2.20;1.40;;;14.40;78.90;;;;;;4921212;29;20084;-90
2023/03/22 11:51:10;;;;;;;2.05;1.50;;;14.40;78.90;;;;;;4904850;29;20502;-90
2023/03/22 11:53:39;;;;;;;1.58;1.35;;;14.40;78.80;;;;;;4904942;29;20024;-89
2023/03/22 11:56:08;;;;;;;2.05;1.50;;;14.40;78.80;;;;;;4920658;29;20030;-90
2023/03/22 11:58:43;;;;;;;1.67;1.58;;;14.40;78.80;;;;;;4904561;29;20032;-90
2023/03/22 12:01:20;;;;;;;2.88;1.40;;;14.50;78.90;;;;;;4935939;29;20086;-91
2023/03/22 12:03:53;;;;;;;1.80;1.40;;;14.50;78.80;;;;;;4936035;29;20035;-90
2023/03/22 12:06:24;;;;;;;2.78;1.50;;;14.40;78.70;;;;;;4920486;29;20446;-90
2023/03/22 12:09:03;;;;;;;2.33;1.40;;;14.50;78.80;;;;;;4888621;29;20100;-90
2023/03/22 12:11:36;;;;;;;1.55;1.27;;;14.50;78.80;;;;;;4904660;29;20056;-90
2023/03/22 12:14:35;;;;;;;4.15;1.50;;;14.50;78.80;;;;;;4904537;29;20055;-89
2023/03/22 12:17:17;;;;;;;1.75;1.20;;;14.50;78.80;;;;;;4920587;29;20499;-89
2023/03/22 12:19:49;;;;;;;1.95;1.63;;;14.50;78.70;;;;;;4920426;29;20496;-92
2023/03/22 12:22:20;;;;;;;2.55;1.50;;;14.50;78.70;;;;;;4937585;29;20043;-90
2023/03/22 12:24:46;;;;;;;2.00;1.65;;;14.50;78.70;;;;;;4943457;29;20100;-89
2023/03/22 12:27:30;;;;;;;2.85;1.60;;;14.50;78.70;;;;;;4909635;29;20068;-88
2023/03/22 12:30:19;;;;;;;2.65;1.58;;;14.50;78.80;;;;;;4939952;29;20036;-88
2023/03/22 12:32:51;;;;;;;2.38;1.45;;;14.50;78.80;;;;;;4905492;29;20055;-87
2023/03/22 12:35:27;;;;;;;1.95;1.35;;;14.60;78.70;;;;;;4919307;29;20036;-88
2023/03/22 12:37:57;;;;;;;2.55;1.33;;;14.60;78.80;;;;;;4921357;29;20095;-91
2023/03/22 12:40:42;;;;;;;2.45;1.50;;;14.60;78.80;;;;;;4920668;29;20024;-90
2023/03/22 12:43:14;;;;;;;1.48;1.20;;;14.60;78.80;;;;;;4921073;29;20438;-91
2023/03/22 12:45:43;;;;;;;3.15;1.50;;;14.60;78.70;;;;;;4935196;29;20036;-90
2023/03/22 12:48:16;;;;;;;1.60;1.50;;;14.60;78.70;;;;;;4888160;29;20032;-87
2023/03/22 12:51:06;;;;;;;1.50;1.40;;;14.60;78.70;;;;;;4919591;29;20035;-88
2023/03/22 12:53:48;;;;;;;1.65;1.40;;;14.60;78.70;;;;;;4903992;29;20031;-89
2023/03/22 12:56:19;;;;;;;1.77;1.33;;;14.60;78.70;;;;;;4935338;29;20028;-89
2023/03/22 12:58:49;;;;;;;1.88;1.40;;;14.60;78.70;;;;;;4903424;29;20092;-89
2023/03/22 13:01:38;;;;;;;2.30;1.70;;;14.60;78.70;;;;;;4920472;29;20040;-89
2023/03/22 13:04:32;;;;;;;1.75;1.45;;;14.60;78.70;;;;;;4920143;29;20028;-89
2023/03/22 13:07:29;;;;;;;1.88;1.42;;;14.60;78.80;;;;;;4934721;29;20032;-89
2023/03/22 13:09:55;;;;;;;1.50;1.25;;;14.60;78.70;;;;;;4903336;29;20480;-90
2023/03/22 13:12:21;;;;;;;2.42;1.60;;;14.60;78.70;;;;;;4919240;29;20034;-89
2023/03/22 13:15:23;;;;;;;2.92;1.60;;;14.60;78.70;;;;;;4918574;29;20141;-90
2023/03/22 13:17:49;;;;;;;1.60;1.50;;;14.60;78.70;;;;;;4886735;29;20075;-90
2023/03/22 13:20:18;;;;;;;2.28;1.58;;;14.60;78.60;;;;;;4920103;29;20056;-88